Terminal Aerodrome Forecast
Issued by NWS Sterling, VA

Current Version | Previous Version | Graphics & Text | Print | Product List | Glossary On
Versions: 1 2 3 4 5 6 7 8 9 10 11 12 13 14 15 16 17 18 19 20 21 22
000
FTUS41 KLWX 192342
TAFMRB
TAF
KMRB 192342Z 2000/2024 00000KT P6SM BKN200
     FM201000 00000KT P6SM SCT025 OVC035
     FM201300 VRB03KT 5SM -RA SCT015 OVC025
     FM201500 14005KT 3SM -RA SCT008 OVC010
     FM202000 14005KT 5SM -DZ BR SCT008 OVC010=

USA.gov is the U.S. government's official web portal to all federal, state and local government web resources and services.